sensor_id;sensor_type;location;lat;lon;timestamp;pressure;altitude;pressure_sealevel;temperature;humidity
64711;BME280;51139;45.626;6.850;2023-03-03T00:01:16;81543.28;;;-1.36;55.88
64711;BME280;51139;45.626;6.850;2023-03-03T00:03:42;81531.00;;;-1.55;56.69
64711;BME280;51139;45.626;6.850;2023-03-03T00:06:12;81536.63;;;-1.51;56.60
64711;BME280;51139;45.626;6.850;2023-03-03T00:08:39;81541.69;;;-1.58;57.24
64711;BME280;51139;45.626;6.850;2023-03-03T00:11:05;81539.41;;;-1.29;55.18
64711;BME280;51139;45.626;6.850;2023-03-03T00:13:43;81537.53;;;-1.48;53.94
64711;BME280;51139;45.626;6.850;2023-03-03T00:16:38;81547.88;;;-1.62;56.49
64711;BME280;51139;45.626;6.850;2023-03-03T00:19:14;81542.59;;;-1.37;57.41
64711;BME280;51139;45.626;6.850;2023-03-03T00:21:42;81545.75;;;-1.25;55.13
64711;BME280;51139;45.626;6.850;2023-03-03T00:24:38;81540.47;;;-1.38;55.10
64711;BME280;51139;45.626;6.850;2023-03-03T00:27:30;81544.50;;;-1.56;55.19
64711;BME280;51139;45.626;6.850;2023-03-03T00:29:59;81543.47;;;-1.34;54.59
64711;BME280;51139;45.626;6.850;2023-03-03T00:32:43;81540.88;;;-1.34;53.58
64711;BME280;51139;45.626;6.850;2023-03-03T00:35:23;81548.81;;;-1.26;51.16
64711;BME280;51139;45.626;6.850;2023-03-03T00:37:59;81544.34;;;-1.45;52.34
64711;BME280;51139;45.626;6.850;2023-03-03T00:40:39;81550.66;;;-1.40;51.70
64711;BME280;51139;45.626;6.850;2023-03-03T00:43:18;81552.56;;;-1.60;53.55
64711;BME280;51139;45.626;6.850;2023-03-03T00:45:54;81545.28;;;-1.62;52.20
64711;BME280;51139;45.626;6.850;2023-03-03T00:48:50;81550.91;;;-1.57;51.63
64711;BME280;51139;45.626;6.850;2023-03-03T00:53:47;81547.00;;;-1.51;52.83
64711;BME280;51139;45.626;6.850;2023-03-03T00:56:12;81542.41;;;-1.96;54.61
64711;BME280;51139;45.626;6.850;2023-03-03T00:58:38;81549.13;;;-1.68;53.85
64711;BME280;51139;45.626;6.850;2023-03-03T01:01:04;81544.34;;;-1.64;53.49
64711;BME280;51139;45.626;6.850;2023-03-03T01:03:29;81540.78;;;-1.61;54.53
64711;BME280;51139;45.626;6.850;2023-03-03T01:05:55;81545.97;;;-1.61;53.84
64711;BME280;51139;45.626;6.850;2023-03-03T01:08:21;81552.22;;;-1.89;55.40
64711;BME280;51139;45.626;6.850;2023-03-03T01:10:55;81548.13;;;-1.84;55.26
64711;BME280;51139;45.626;6.850;2023-03-03T01:13:25;81544.06;;;-1.99;56.36
64711;BME280;51139;45.626;6.850;2023-03-03T01:15:51;81540.78;;;-1.80;55.88
64711;BME280;51139;45.626;6.850;2023-03-03T01:18:17;81537.06;;;-1.85;56.59
64711;BME280;51139;45.626;6.850;2023-03-03T01:20:42;81536.00;;;-1.95;56.74
64711;BME280;51139;45.626;6.850;2023-03-03T01:23:08;81542.81;;;-1.92;57.10
64711;BME280;51139;45.626;6.850;2023-03-03T01:25:34;81536.00;;;-1.95;57.73
64711;BME280;51139;45.626;6.850;2023-03-03T01:27:59;81535.97;;;-2.14;58.65
64711;BME280;51139;45.626;6.850;2023-03-03T01:30:25;81537.88;;;-2.15;58.56
64711;BME280;51139;45.626;6.850;2023-03-03T01:32:51;81530.88;;;-2.01;57.76
64711;BME280;51139;45.626;6.850;2023-03-03T01:35:17;81536.28;;;-1.80;57.32
64711;BME280;51139;45.626;6.850;2023-03-03T01:37:42;81535.03;;;-1.73;57.68
64711;BME280;51139;45.626;6.850;2023-03-03T01:40:15;81527.38;;;-1.84;57.78
64711;BME280;51139;45.626;6.850;2023-03-03T01:42:41;81528.28;;;-1.82;58.18
64711;BME280;51139;45.626;6.850;2023-03-03T01:45:17;81526.47;;;-1.87;58.85
64711;BME280;51139;45.626;6.850;2023-03-03T01:47:51;81529.41;;;-1.77;58.10
64711;BME280;51139;45.626;6.850;2023-03-03T01:52:53;81532.56;;;-1.84;57.98
64711;BME280;51139;45.626;6.850;2023-03-03T01:55:22;81520.19;;;-1.78;58.32
64711;BME280;51139;45.626;6.850;2023-03-03T01:57:58;81523.44;;;-1.91;58.97
64711;BME280;51139;45.626;6.850;2023-03-03T02:00:25;81518.03;;;-1.55;57.21
64711;BME280;51139;45.626;6.850;2023-03-03T02:02:52;81516.09;;;-1.35;56.45
64711;BME280;51139;45.626;6.850;2023-03-03T02:05:18;81521.41;;;-1.79;55.90
64711;BME280;51139;45.626;6.850;2023-03-03T02:07:44;81515.88;;;-1.89;56.39
64711;BME280;51139;45.626;6.850;2023-03-03T02:10:12;81519.44;;;-1.73;54.89
64711;BME280;51139;45.626;6.850;2023-03-03T02:12:43;81517.44;;;-1.48;54.66
64711;BME280;51139;45.626;6.850;2023-03-03T02:17:44;81516.41;;;-1.58;53.42
64711;BME280;51139;45.626;6.850;2023-03-03T02:22:54;81510.03;;;-1.57;54.53
64711;BME280;51139;45.626;6.850;2023-03-03T02:25:32;81517.41;;;-1.80;55.38
64711;BME280;51139;45.626;6.850;2023-03-03T02:27:59;81524.78;;;-1.65;55.07
64711;BME280;51139;45.626;6.850;2023-03-03T02:30:26;81520.09;;;-1.67;54.71
64711;BME280;51139;45.626;6.850;2023-03-03T02:32:51;81511.50;;;-1.81;54.87
64711;BME280;51139;45.626;6.850;2023-03-03T02:35:30;81515.78;;;-1.64;54.84
64711;BME280;51139;45.626;6.850;2023-03-03T02:38:01;81509.97;;;-1.70;54.70
64711;BME280;51139;45.626;6.850;2023-03-03T02:40:33;81506.75;;;-1.96;56.21
64711;BME280;51139;45.626;6.850;2023-03-03T02:43:03;81512.56;;;-2.09;56.74
64711;BME280;51139;45.626;6.850;2023-03-03T02:45:30;81514.31;;;-1.79;55.73
64711;BME280;51139;45.626;6.850;2023-03-03T02:47:55;81513.59;;;-1.79;56.19
64711;BME280;51139;45.626;6.850;2023-03-03T02:50:21;81514.81;;;-1.99;56.05
64711;BME280;51139;45.626;6.850;2023-03-03T02:52:46;81507.50;;;-2.01;56.42
64711;BME280;51139;45.626;6.850;2023-03-03T02:55:12;81506.31;;;-2.19;57.51
64711;BME280;51139;45.626;6.850;2023-03-03T02:57:37;81499.31;;;-2.05;57.45
64711;BME280;51139;45.626;6.850;2023-03-03T03:00:03;81510.78;;;-2.20;57.65
64711;BME280;51139;45.626;6.850;2023-03-03T03:02:29;81502.94;;;-1.95;56.66
64711;BME280;51139;45.626;6.850;2023-03-03T03:04:55;81508.00;;;-2.02;56.05
64711;BME280;51139;45.626;6.850;2023-03-03T03:07:20;81502.25;;;-1.95;54.65
64711;BME280;51139;45.626;6.850;2023-03-03T03:09:45;81497.34;;;-1.80;54.49
64711;BME280;51139;45.626;6.850;2023-03-03T03:12:11;81493.97;;;-1.74;54.71
64711;BME280;51139;45.626;6.850;2023-03-03T03:14:37;81503.25;;;-1.98;54.53
64711;BME280;51139;45.626;6.850;2023-03-03T03:17:02;81493.28;;;-1.75;53.96
64711;BME280;51139;45.626;6.850;2023-03-03T03:19:29;81494.47;;;-1.76;54.06
64711;BME280;51139;45.626;6.850;2023-03-03T03:21:54;81498.75;;;-1.79;53.19
64711;BME280;51139;45.626;6.850;2023-03-03T03:24:19;81500.00;;;-1.66;52.62
64711;BME280;51139;45.626;6.850;2023-03-03T03:26:45;81494.25;;;-1.78;53.45
64711;BME280;51139;45.626;6.850;2023-03-03T03:29:10;81497.69;;;-2.08;53.79
64711;BME280;51139;45.626;6.850;2023-03-03T03:31:36;81500.91;;;-2.21;55.01
64711;BME280;51139;45.626;6.850;2023-03-03T03:34:02;81500.69;;;-2.42;54.76
64711;BME280;51139;45.626;6.850;2023-03-03T03:36:27;81499.50;;;-2.41;55.07
64711;BME280;51139;45.626;6.850;2023-03-03T03:38:53;81505.19;;;-2.24;55.26
64711;BME280;51139;45.626;6.850;2023-03-03T03:41:18;81501.66;;;-2.26;55.06
64711;BME280;51139;45.626;6.850;2023-03-03T03:43:43;81502.16;;;-2.28;54.45
64711;BME280;51139;45.626;6.850;2023-03-03T03:46:09;81501.53;;;-2.34;54.85
64711;BME280;51139;45.626;6.850;2023-03-03T03:48:34;81501.41;;;-2.03;54.01
64711;BME280;51139;45.626;6.850;2023-03-03T03:51:00;81506.63;;;-2.28;54.10
64711;BME280;51139;45.626;6.850;2023-03-03T03:53:26;81505.19;;;-2.24;53.85
64711;BME280;51139;45.626;6.850;2023-03-03T03:55:51;81504.63;;;-2.16;53.36
64711;BME280;51139;45.626;6.850;2023-03-03T03:58:17;81504.19;;;-1.82;52.68
64711;BME280;51139;45.626;6.850;2023-03-03T04:00:44;81506.75;;;-1.77;52.19
64711;BME280;51139;45.626;6.850;2023-03-03T04:03:11;81505.22;;;-2.04;52.55
64711;BME280;51139;45.626;6.850;2023-03-03T04:05:38;81506.13;;;-1.83;50.98
64711;BME280;51139;45.626;6.850;2023-03-03T04:08:04;81507.06;;;-2.24;54.21
64711;BME280;51139;45.626;6.850;2023-03-03T04:10:29;81500.81;;;-2.35;54.08
64711;BME280;51139;45.626;6.850;2023-03-03T04:12:55;81502.25;;;-2.14;52.06
64711;BME280;51139;45.626;6.850;2023-03-03T04:15:20;81500.00;;;-2.24;52.16
64711;BME280;51139;45.626;6.850;2023-03-03T04:17:46;81508.69;;;-2.02;52.31
64711;BME280;51139;45.626;6.850;2023-03-03T04:20:13;81514.38;;;-1.84;51.57
64711;BME280;51139;45.626;6.850;2023-03-03T04:22:40;81501.13;;;-1.81;51.71
64711;BME280;51139;45.626;6.850;2023-03-03T04:25:06;81503.44;;;-1.96;52.77
64711;BME280;51139;45.626;6.850;2023-03-03T04:27:33;81497.41;;;-1.66;52.01
64711;BME280;51139;45.626;6.850;2023-03-03T04:29:59;81502.41;;;-2.07;53.35
64711;BME280;51139;45.626;6.850;2023-03-03T04:32:25;81510.31;;;-2.18;53.66
64711;BME280;51139;45.626;6.850;2023-03-03T04:34:51;81505.66;;;-2.25;53.07
64711;BME280;51139;45.626;6.850;2023-03-03T04:37:17;81501.94;;;-2.30;53.05
64711;BME280;51139;45.626;6.850;2023-03-03T04:39:42;81501.25;;;-2.30;53.12
64711;BME280;51139;45.626;6.850;2023-03-03T04:42:07;81495.84;;;-2.32;53.02
64711;BME280;51139;45.626;6.850;2023-03-03T04:44:33;81494.88;;;-1.91;51.10
64711;BME280;51139;45.626;6.850;2023-03-03T04:46:58;81498.06;;;-1.98;54.42
64711;BME280;51139;45.626;6.850;2023-03-03T04:49:24;81495.16;;;-1.76;53.40
64711;BME280;51139;45.626;6.850;2023-03-03T04:51:49;81493.13;;;-2.02;53.88
64711;BME280;51139;45.626;6.850;2023-03-03T04:54:15;81494.00;;;-2.57;54.22
64711;BME280;51139;45.626;6.850;2023-03-03T04:56:40;81503.03;;;-2.88;55.36
64711;BME280;51139;45.626;6.850;2023-03-03T04:59:05;81494.84;;;-2.48;52.70
64711;BME280;51139;45.626;6.850;2023-03-03T05:01:31;81502.38;;;-2.70;50.43
64711;BME280;51139;45.626;6.850;2023-03-03T05:03:56;81500.03;;;-2.48;50.30
64711;BME280;51139;45.626;6.850;2023-03-03T05:06:21;81489.38;;;-2.45;49.88
64711;BME280;51139;45.626;6.850;2023-03-03T05:08:47;81486.81;;;-2.26;48.33
64711;BME280;51139;45.626;6.850;2023-03-03T05:11:13;81484.00;;;-2.28;48.78
64711;BME280;51139;45.626;6.850;2023-03-03T05:13:38;81483.16;;;-1.98;49.32
64711;BME280;51139;45.626;6.850;2023-03-03T05:16:04;81483.09;;;-2.11;51.75
64711;BME280;51139;45.626;6.850;2023-03-03T05:18:29;81490.25;;;-1.98;52.10
64711;BME280;51139;45.626;6.850;2023-03-03T05:20:55;81482.75;;;-2.02;52.52
64711;BME280;51139;45.626;6.850;2023-03-03T05:23:21;81482.72;;;-2.21;53.35
64711;BME280;51139;45.626;6.850;2023-03-03T05:25:47;81490.88;;;-2.30;52.68
64711;BME280;51139;45.626;6.850;2023-03-03T05:28:13;81491.41;;;-2.38;52.33
64711;BME280;51139;45.626;6.850;2023-03-03T05:30:38;81490.13;;;-2.50;52.42
64711;BME280;51139;45.626;6.850;2023-03-03T05:33:05;81493.63;;;-2.67;53.16
64711;BME280;51139;45.626;6.850;2023-03-03T05:35:31;81487.50;;;-2.25;52.37
64711;BME280;51139;45.626;6.850;2023-03-03T05:37:57;81494.09;;;-2.24;51.91
64711;BME280;51139;45.626;6.850;2023-03-03T05:40:23;81488.03;;;-2.52;53.18
64711;BME280;51139;45.626;6.850;2023-03-03T05:42:49;81489.56;;;-2.62;53.60
64711;BME280;51139;45.626;6.850;2023-03-03T05:45:15;81485.88;;;-2.47;53.33
64711;BME280;51139;45.626;6.850;2023-03-03T05:47:44;81486.44;;;-2.80;53.16
64711;BME280;51139;45.626;6.850;2023-03-03T05:50:10;81487.00;;;-3.17;54.75
64711;BME280;51139;45.626;6.850;2023-03-03T05:52:36;81490.44;;;-3.34;55.68
64711;BME280;51139;45.626;6.850;2023-03-03T05:55:02;81491.59;;;-3.29;54.58
64711;BME280;51139;45.626;6.850;2023-03-03T05:57:27;81498.16;;;-2.98;53.70
64711;BME280;51139;45.626;6.850;2023-03-03T05:59:53;81491.56;;;-2.74;52.17
64711;BME280;51139;45.626;6.850;2023-03-03T06:02:18;81494.59;;;-2.70;52.91
64711;BME280;51139;45.626;6.850;2023-03-03T06:04:44;81489.75;;;-2.79;53.46
64711;BME280;51139;45.626;6.850;2023-03-03T06:07:09;81499.28;;;-2.68;52.76
64711;BME280;51139;45.626;6.850;2023-03-03T06:09:34;81489.78;;;-3.10;53.91
64711;BME280;51139;45.626;6.850;2023-03-03T06:12:01;81495.69;;;-3.09;54.14
64711;BME280;51139;45.626;6.850;2023-03-03T06:14:26;81494.78;;;-3.17;55.00
64711;BME280;51139;45.626;6.850;2023-03-03T06:16:51;81497.31;;;-3.06;54.16
64711;BME280;51139;45.626;6.850;2023-03-03T06:19:17;81498.22;;;-3.34;54.74
64711;BME280;51139;45.626;6.850;2023-03-03T06:21:42;81495.97;;;-3.18;55.09
64711;BME280;51139;45.626;6.850;2023-03-03T06:24:08;81496.84;;;-3.10;54.88
64711;BME280;51139;45.626;6.850;2023-03-03T06:26:34;81505.25;;;-3.29;54.79
64711;BME280;51139;45.626;6.850;2023-03-03T06:28:59;81494.38;;;-2.97;54.47
64711;BME280;51139;45.626;6.850;2023-03-03T06:31:25;81506.94;;;-3.06;54.31
64711;BME280;51139;45.626;6.850;2023-03-03T06:33:52;81499.88;;;-2.56;52.07
64711;BME280;51139;45.626;6.850;2023-03-03T06:36:18;81511.06;;;-2.92;53.72
64711;BME280;51139;45.626;6.850;2023-03-03T06:38:44;81505.94;;;-2.98;54.13
64711;BME280;51139;45.626;6.850;2023-03-03T06:41:10;81510.94;;;-3.05;54.35
64711;BME280;51139;45.626;6.850;2023-03-03T06:43:35;81518.91;;;-2.98;54.32
64711;BME280;51139;45.626;6.850;2023-03-03T06:46:02;81515.66;;;-3.04;54.77
64711;BME280;51139;45.626;6.850;2023-03-03T06:48:31;81524.22;;;-2.90;54.49
64711;BME280;51139;45.626;6.850;2023-03-03T06:50:58;81523.44;;;-3.04;54.34
64711;BME280;51139;45.626;6.850;2023-03-03T06:53:25;81524.63;;;-3.05;55.21
64711;BME280;51139;45.626;6.850;2023-03-03T06:55:51;81527.69;;;-3.06;54.38
64711;BME280;51139;45.626;6.850;2023-03-03T06:58:19;81530.66;;;-2.97;53.61
64711;BME280;51139;45.626;6.850;2023-03-03T07:03:16;81534.19;;;-2.69;54.15
64711;BME280;51139;45.626;6.850;2023-03-03T07:05:43;81533.22;;;-2.41;53.00
64711;BME280;51139;45.626;6.850;2023-03-03T07:08:17;81534.31;;;-1.93;52.21
64711;BME280;51139;45.626;6.850;2023-03-03T07:10:44;81533.69;;;-1.80;51.73
64711;BME280;51139;45.626;6.850;2023-03-03T07:13:28;81534.03;;;-1.51;51.81
64711;BME280;51139;45.626;6.850;2023-03-03T07:16:00;81528.47;;;-1.09;50.46
64711;BME280;51139;45.626;6.850;2023-03-03T07:18:39;81534.03;;;-0.12;47.82
64711;BME280;51139;45.626;6.850;2023-03-03T07:21:20;81533.19;;;0.47;46.28
64711;BME280;51139;45.626;6.850;2023-03-03T07:23:51;81526.28;;;1.05;45.90
64711;BME280;51139;45.626;6.850;2023-03-03T07:26:19;81529.09;;;1.28;45.02
64711;BME280;51139;45.626;6.850;2023-03-03T07:29:16;81535.84;;;1.02;44.43
64711;BME280;51139;45.626;6.850;2023-03-03T07:31:47;81532.50;;;0.46;46.63
64711;BME280;51139;45.626;6.850;2023-03-03T07:34:23;81531.63;;;1.21;45.95
64711;BME280;51139;45.626;6.850;2023-03-03T07:36:58;81535.28;;;1.60;47.92
64711;BME280;51139;45.626;6.850;2023-03-03T07:39:35;81540.19;;;2.22;43.25
64711;BME280;51139;45.626;6.850;2023-03-03T07:42:39;81543.78;;;2.40;45.48
64711;BME280;51139;45.626;6.850;2023-03-03T07:45:29;81546.75;;;1.57;47.03
64711;BME280;51139;45.626;6.850;2023-03-03T07:48:17;81548.81;;;1.58;46.82
64711;BME280;51139;45.626;6.850;2023-03-03T07:50:44;81547.22;;;1.55;45.96
64711;BME280;51139;45.626;6.850;2023-03-03T07:53:35;81551.00;;;1.47;46.52
64711;BME280;51139;45.626;6.850;2023-03-03T07:56:14;81550.94;;;1.60;47.52
64711;BME280;51139;45.626;6.850;2023-03-03T07:58:41;81546.13;;;2.22;47.05
64711;BME280;51139;45.626;6.850;2023-03-03T08:03:57;81557.44;;;2.54;47.16
64711;BME280;51139;45.626;6.850;2023-03-03T08:06:41;81554.19;;;2.32;47.88
64711;BME280;51139;45.626;6.850;2023-03-03T08:11:33;81548.75;;;2.22;46.95
64711;BME280;51139;45.626;6.850;2023-03-03T08:14:00;81550.25;;;2.46;49.36
64711;BME280;51139;45.626;6.850;2023-03-03T08:16:34;81552.69;;;3.41;45.57
64711;BME280;51139;45.626;6.850;2023-03-03T08:19:02;81556.13;;;2.68;45.95
64711;BME280;51139;45.626;6.850;2023-03-03T08:21:29;81549.56;;;3.50;43.75
64711;BME280;51139;45.626;6.850;2023-03-03T08:23:56;81554.25;;;2.40;44.53
64711;BME280;51139;45.626;6.850;2023-03-03T08:26:23;81555.72;;;2.64;44.91
64711;BME280;51139;45.626;6.850;2023-03-03T08:28:49;81556.63;;;2.30;46.56
64711;BME280;51139;45.626;6.850;2023-03-03T08:31:15;81548.25;;;1.73;46.59
64711;BME280;51139;45.626;6.850;2023-03-03T08:33:42;81551.81;;;2.13;45.29
64711;BME280;51139;45.626;6.850;2023-03-03T08:36:07;81557.19;;;2.73;42.44
64711;BME280;51139;45.626;6.850;2023-03-03T08:38:33;81549.75;;;2.48;45.29
64711;BME280;51139;45.626;6.850;2023-03-03T08:40:59;81548.06;;;2.58;42.82
64711;BME280;51139;45.626;6.850;2023-03-03T08:43:25;81543.59;;;3.42;40.00
64711;BME280;51139;45.626;6.850;2023-03-03T08:45:52;81543.22;;;3.30;40.59
64711;BME280;51139;45.626;6.850;2023-03-03T08:48:18;81551.28;;;3.40;43.53
64711;BME280;51139;45.626;6.850;2023-03-03T08:50:44;81548.91;;;2.53;42.07
64711;BME280;51139;45.626;6.850;2023-03-03T08:53:11;81548.41;;;2.62;42.56
64711;BME280;51139;45.626;6.850;2023-03-03T08:55:37;81544.78;;;3.18;41.40
64711;BME280;51139;45.626;6.850;2023-03-03T08:58:02;81537.53;;;4.17;39.50
64711;BME280;51139;45.626;6.850;2023-03-03T09:00:28;81538.91;;;3.64;42.27
64711;BME280;51139;45.626;6.850;2023-03-03T09:02:53;81532.13;;;3.84;43.54
64711;BME280;51139;45.626;6.850;2023-03-03T09:05:20;81540.66;;;4.47;39.79
64711;BME280;51139;45.626;6.850;2023-03-03T09:07:46;81544.72;;;4.01;42.34
64711;BME280;51139;45.626;6.850;2023-03-03T09:10:17;81546.63;;;4.08;43.52
64711;BME280;51139;45.626;6.850;2023-03-03T09:12:45;81540.09;;;4.56;41.70
64711;BME280;51139;45.626;6.850;2023-03-03T09:17:49;81544.09;;;3.25;41.13
64711;BME280;51139;45.626;6.850;2023-03-03T09:20:36;81540.16;;;4.09;43.82
64711;BME280;51139;45.626;6.850;2023-03-03T09:25:52;81535.69;;;4.66;43.32
64711;BME280;51139;45.626;6.850;2023-03-03T09:28:31;81539.75;;;5.16;40.37
64711;BME280;51139;45.626;6.850;2023-03-03T09:30:59;81538.13;;;4.80;41.50
64711;BME280;51139;45.626;6.850;2023-03-03T09:33:44;81537.03;;;4.99;40.95
64711;BME280;51139;45.626;6.850;2023-03-03T09:36:27;81549.06;;;3.00;46.16
64711;BME280;51139;45.626;6.850;2023-03-03T09:38:54;81553.06;;;2.93;44.98
64711;BME280;51139;45.626;6.850;2023-03-03T09:55:53;81554.94;;;3.37;44.36
64711;BME280;51139;45.626;6.850;2023-03-03T09:58:40;81547.78;;;3.30;43.40
64711;BME280;51139;45.626;6.850;2023-03-03T10:15:53;81550.38;;;3.22;43.40
64711;BME280;51139;45.626;6.850;2023-03-03T10:21:29;81547.31;;;4.32;39.42
64711;BME280;51139;45.626;6.850;2023-03-03T10:24:08;81554.31;;;3.83;47.20
64711;BME280;51139;45.626;6.850;2023-03-03T11:01:57;81555.53;;;3.90;43.72
64711;BME280;51139;45.626;6.850;2023-03-03T11:04:43;81557.91;;;3.33;46.77
64711;BME280;51139;45.626;6.850;2023-03-03T11:10:51;81563.72;;;3.78;44.65
64711;BME280;51139;45.626;6.850;2023-03-03T11:13:44;81568.53;;;3.28;48.32
64711;BME280;51139;45.626;6.850;2023-03-03T11:16:44;81569.50;;;3.77;49.40
64711;BME280;51139;45.626;6.850;2023-03-03T11:19:32;81562.53;;;4.26;47.17
64711;BME280;51139;45.626;6.850;2023-03-03T11:37:44;81552.50;;;4.71;45.08
64711;BME280;51139;45.626;6.850;2023-03-03T11:43:31;81535.78;;;4.20;44.92
64711;BME280;51139;45.626;6.850;2023-03-03T11:46:04;81536.50;;;4.13;44.93
64711;BME280;51139;45.626;6.850;2023-03-03T11:52:10;81534.03;;;4.22;43.69
64711;BME280;51139;45.626;6.850;2023-03-03T11:54:28;81534.72;;;3.92;42.71
64711;BME280;51139;45.626;6.850;2023-03-03T11:57:56;81531.75;;;4.34;42.38
64711;BME280;51139;45.626;6.850;2023-03-03T12:00:11;81535.63;;;4.18;43.27
64711;BME280;51139;45.626;6.850;2023-03-03T12:02:45;81536.75;;;4.71;45.70
64711;BME280;51139;45.626;6.850;2023-03-03T12:08:15;81525.22;;;4.66;42.83
64711;BME280;51139;45.626;6.850;2023-03-03T12:13:52;81527.81;;;4.74;43.29
64711;BME280;51139;45.626;6.850;2023-03-03T12:16:42;81513.88;;;4.56;42.44
64711;BME280;51139;45.626;6.850;2023-03-03T12:33:28;81507.84;;;4.87;45.79
64711;BME280;51139;45.626;6.850;2023-03-03T12:36:04;81508.63;;;4.56;43.75
64711;BME280;51139;45.626;6.850;2023-03-03T12:44:06;81502.31;;;4.59;44.66
64711;BME280;51139;45.626;6.850;2023-03-03T12:49:22;81507.84;;;3.76;43.62
64711;BME280;51139;45.626;6.850;2023-03-03T12:52:01;81497.97;;;4.54;42.67
64711;BME280;51139;45.626;6.850;2023-03-03T12:57:18;81505.88;;;4.95;42.77
64711;BME280;51139;45.626;6.850;2023-03-03T13:05:32;81504.88;;;4.90;42.72
64711;BME280;51139;45.626;6.850;2023-03-03T13:10:51;81501.03;;;4.76;40.69
64711;BME280;51139;45.626;6.850;2023-03-03T13:13:30;81499.97;;;4.79;41.61
64711;BME280;51139;45.626;6.850;2023-03-03T13:16:20;81507.75;;;5.10;42.21
64711;BME280;51139;45.626;6.850;2023-03-03T13:24:15;81503.06;;;5.42;43.62
64711;BME280;51139;45.626;6.850;2023-03-03T13:26:48;81510.63;;;4.96;40.45
64711;BME280;51139;45.626;6.850;2023-03-03T13:32:42;81505.16;;;4.38;39.17
64711;BME280;51139;45.626;6.850;2023-03-03T13:37:56;81505.38;;;4.89;42.50
64711;BME280;51139;45.626;6.850;2023-03-03T13:40:26;81509.00;;;5.09;43.47
64711;BME280;51139;45.626;6.850;2023-03-03T13:43:19;81505.22;;;5.28;43.33
64711;BME280;51139;45.626;6.850;2023-03-03T13:48:59;81508.34;;;4.93;39.27
64711;BME280;51139;45.626;6.850;2023-03-03T14:02:37;81504.75;;;5.14;41.58
64711;BME280;51139;45.626;6.850;2023-03-03T14:05:16;81501.38;;;4.88;41.50
64711;BME280;51139;45.626;6.850;2023-03-03T14:10:43;81506.13;;;5.22;41.32
64711;BME280;51139;45.626;6.850;2023-03-03T14:13:18;81496.78;;;5.29;40.08
64711;BME280;51139;45.626;6.850;2023-03-03T14:16:04;81500.63;;;4.95;40.56
64711;BME280;51139;45.626;6.850;2023-03-03T14:18:42;81501.38;;;5.21;40.08
64711;BME280;51139;45.626;6.850;2023-03-03T14:21:16;81498.00;;;5.36;39.48
64711;BME280;51139;45.626;6.850;2023-03-03T14:26:11;81497.03;;;5.16;42.11
64711;BME280;51139;45.626;6.850;2023-03-03T14:28:40;81495.13;;;5.49;40.02
64711;BME280;51139;45.626;6.850;2023-03-03T14:31:29;81506.13;;;5.22;39.14
64711;BME280;51139;45.626;6.850;2023-03-03T14:36:46;81498.72;;;5.36;39.52
64711;BME280;51139;45.626;6.850;2023-03-03T14:42:01;81508.09;;;5.47;39.85
64711;BME280;51139;45.626;6.850;2023-03-03T14:45:17;81506.03;;;5.38;39.70
64711;BME280;51139;45.626;6.850;2023-03-03T14:47:26;81504.09;;;5.05;40.32
64711;BME280;51139;45.626;6.850;2023-03-03T14:49:53;81505.22;;;4.87;39.75
64711;BME280;51139;45.626;6.850;2023-03-03T14:52:22;81501.91;;;4.78;39.78
64711;BME280;51139;45.626;6.850;2023-03-03T14:54:59;81494.53;;;4.92;39.10
64711;BME280;51139;45.626;6.850;2023-03-03T15:00:05;81499.44;;;4.88;40.77
64711;BME280;51139;45.626;6.850;2023-03-03T15:05:32;81493.91;;;4.68;40.73
64711;BME280;51139;45.626;6.850;2023-03-03T15:08:08;81502.66;;;4.63;42.28
64711;BME280;51139;45.626;6.850;2023-03-03T15:18:24;81501.47;;;4.49;43.05
64711;BME280;51139;45.626;6.850;2023-03-03T15:21:18;81498.50;;;4.45;42.79
64711;BME280;51139;45.626;6.850;2023-03-03T15:34:38;81507.66;;;3.97;45.09
64711;BME280;51139;45.626;6.850;2023-03-03T15:48:04;81513.41;;;4.19;46.44
64711;BME280;51139;45.626;6.850;2023-03-03T16:01:27;81519.50;;;3.44;48.03
64711;BME280;51139;45.626;6.850;2023-03-03T16:04:13;81515.00;;;3.75;47.51
64711;BME280;51139;45.626;6.850;2023-03-03T16:12:10;81521.81;;;3.63;48.81
64711;BME280;51139;45.626;6.850;2023-03-03T16:17:46;81522.50;;;3.87;49.00
64711;BME280;51139;45.626;6.850;2023-03-03T16:21:01;81526.72;;;3.82;48.75
64711;BME280;51139;45.626;6.850;2023-03-03T16:26:37;81533.31;;;3.60;48.43
64711;BME280;51139;45.626;6.850;2023-03-03T16:32:16;81539.81;;;3.67;47.45
64711;BME280;51139;45.626;6.850;2023-03-03T16:34:56;81544.13;;;3.41;48.11
64711;BME280;51139;45.626;6.850;2023-03-03T16:37:30;81553.88;;;3.32;48.79
64711;BME280;51139;45.626;6.850;2023-03-03T16:42:48;81562.91;;;3.16;50.34
64711;BME280;51139;45.626;6.850;2023-03-03T16:45:30;81566.16;;;3.01;49.72
64711;BME280;51139;45.626;6.850;2023-03-03T16:53:56;81580.09;;;2.96;51.56
64711;BME280;51139;45.626;6.850;2023-03-03T16:56:50;81571.03;;;2.97;52.52
64711;BME280;51139;45.626;6.850;2023-03-03T17:02:13;81582.66;;;2.43;53.98
64711;BME280;51139;45.626;6.850;2023-03-03T17:04:53;81587.19;;;2.43;53.83
64711;BME280;51139;45.626;6.850;2023-03-03T17:10:07;81586.56;;;2.95;53.30
64711;BME280;51139;45.626;6.850;2023-03-03T17:12:49;81600.25;;;2.14;56.18
64711;BME280;51139;45.626;6.850;2023-03-03T17:18:19;81604.13;;;2.50;55.69
64711;BME280;51139;45.626;6.850;2023-03-03T17:20:50;81601.72;;;2.01;57.78
64711;BME280;51139;45.626;6.850;2023-03-03T17:32:17;81611.03;;;1.89;59.63
64711;BME280;51139;45.626;6.850;2023-03-03T17:35:05;81622.84;;;1.82;59.11
64711;BME280;51139;45.626;6.850;2023-03-03T17:40:16;81633.41;;;1.98;58.71
64711;BME280;51139;45.626;6.850;2023-03-03T17:45:40;81633.97;;;1.62;60.15
64711;BME280;51139;45.626;6.850;2023-03-03T17:56:19;81638.56;;;1.48;61.96
64711;BME280;51139;45.626;6.850;2023-03-03T17:59:21;81646.97;;;1.75;61.01
64711;BME280;51139;45.626;6.850;2023-03-03T18:05:00;81663.06;;;0.83;66.90
64711;BME280;51139;45.626;6.850;2023-03-03T18:07:55;81660.75;;;1.41;64.89
64711;BME280;51139;45.626;6.850;2023-03-03T18:18:23;81671.81;;;0.58;75.08
64711;BME280;51139;45.626;6.850;2023-03-03T18:21:14;81671.97;;;1.01;72.00
64711;BME280;51139;45.626;6.850;2023-03-03T18:23:43;81673.28;;;0.81;71.43
64711;BME280;51139;45.626;6.850;2023-03-03T18:26:31;81672.22;;;0.49;74.39
64711;BME280;51139;45.626;6.850;2023-03-03T18:29:21;81679.06;;;-0.40;79.94
64711;BME280;51139;45.626;6.850;2023-03-03T18:34:40;81682.44;;;0.61;76.37